createdAt,value
2019-01-13T00:00:21.909Z,5.80
2019-01-13T00:02:50.368Z,5.90
2019-01-13T00:05:18.944Z,5.80
2019-01-13T00:07:47.455Z,5.80
2019-01-13T00:10:15.901Z,5.80
2019-01-13T00:12:44.413Z,5.80
2019-01-13T00:15:12.999Z,5.80
2019-01-13T00:17:41.682Z,5.80
2019-01-13T00:20:11.844Z,5.80
2019-01-13T00:22:40.363Z,5.80
2019-01-13T00:25:08.870Z,5.80
2019-01-13T00:27:37.351Z,5.80
2019-01-13T00:30:19.744Z,5.70
2019-01-13T00:32:48.304Z,5.70
2019-01-13T00:35:16.820Z,5.70
2019-01-13T00:37:45.403Z,5.70
2019-01-13T00:40:18.982Z,5.70
2019-01-13T00:42:47.589Z,5.70
2019-01-13T00:45:16.448Z,5.70
2019-01-13T00:47:44.936Z,5.70
2019-01-13T00:50:15.087Z,5.70
2019-01-13T00:52:43.863Z,5.70
2019-01-13T00:55:13.915Z,5.80
2019-01-13T00:57:42.433Z,5.70
2019-01-13T01:00:14.840Z,5.70
2019-01-13T01:02:43.421Z,5.70
2019-01-13T01:05:11.947Z,5.70
2019-01-13T01:07:40.588Z,5.80
2019-01-13T01:10:12.004Z,5.70
2019-01-13T01:12:40.619Z,5.70
2019-01-13T01:15:11.022Z,5.80
2019-01-13T01:17:39.504Z,5.70
2019-01-13T01:20:13.031Z,5.80
2019-01-13T01:22:41.508Z,5.70
2019-01-13T01:25:11.677Z,5.80
2019-01-13T01:27:40.312Z,5.80
2019-01-13T01:30:12.067Z,5.80
2019-01-13T01:32:40.516Z,5.70
2019-01-13T01:35:09.135Z,5.70
2019-01-13T01:37:37.714Z,5.70
2019-01-13T01:40:09.451Z,5.80
2019-01-13T01:42:37.956Z,5.80
2019-01-13T01:45:08.924Z,5.80
2019-01-13T01:47:37.479Z,5.70
2019-01-13T01:50:08.309Z,5.80
2019-01-13T01:52:36.893Z,5.80
2019-01-13T01:55:08.039Z,5.80
2019-01-13T01:57:36.484Z,5.70
2019-01-13T02:00:08.268Z,5.80
2019-01-13T02:02:36.861Z,5.80
2019-01-13T02:05:05.990Z,5.80
2019-01-13T02:07:34.852Z,5.80
2019-01-13T02:10:05.449Z,5.80
2019-01-13T02:12:34.058Z,5.80
2019-01-13T02:15:02.542Z,5.80
2019-01-13T02:17:31.123Z,5.70
2019-01-13T02:19:59.503Z,5.70
2019-01-13T02:22:27.984Z,5.70
2019-01-13T02:24:56.411Z,5.70
2019-01-13T02:27:24.946Z,5.70
2019-01-13T02:29:53.363Z,5.70
2019-01-13T02:32:21.874Z,5.80
2019-01-13T02:34:50.491Z,5.80
2019-01-13T02:37:18.938Z,5.70
2019-01-13T02:39:47.527Z,5.70
2019-01-13T02:42:16.035Z,5.80
2019-01-13T02:44:44.485Z,5.70
2019-01-13T02:47:12.996Z,5.70
2019-01-13T02:49:41.476Z,5.80
2019-01-13T02:52:09.908Z,5.80
2019-01-13T02:54:38.440Z,5.80
2019-01-13T02:57:06.918Z,5.80
2019-01-13T02:59:35.404Z,5.80
2019-01-13T03:02:03.881Z,5.90
2019-01-13T03:04:32.329Z,5.80
2019-01-13T03:07:01.047Z,5.80
2019-01-13T03:09:29.596Z,5.80
2019-01-13T03:11:58.052Z,5.80
2019-01-13T03:14:26.695Z,5.80
2019-01-13T03:16:55.279Z,5.80
2019-01-13T03:19:23.798Z,5.80
2019-01-13T03:21:52.309Z,5.80
2019-01-13T03:24:20.823Z,5.80
2019-01-13T03:26:49.303Z,5.80
2019-01-13T03:29:17.991Z,5.80
2019-01-13T03:31:46.472Z,5.80
2019-01-13T03:34:15.050Z,5.80
2019-01-13T03:36:43.507Z,5.80
2019-01-13T03:39:11.980Z,5.90
2019-01-13T03:41:40.405Z,5.90
2019-01-13T03:44:08.981Z,5.90
2019-01-13T03:46:37.627Z,5.90
2019-01-13T03:49:06.143Z,5.90
2019-01-13T03:51:34.700Z,5.90
2019-01-13T03:56:39.097Z,5.90
2019-01-13T03:59:07.583Z,5.90
2019-01-13T04:01:36.057Z,5.80
2019-01-13T04:04:04.642Z,5.90
2019-01-13T04:06:33.132Z,5.90
2019-01-13T04:09:01.547Z,5.90
2019-01-13T04:11:30.118Z,6.00
2019-01-13T04:13:58.536Z,6.00
2019-01-13T04:16:27.047Z,6.00
2019-01-13T04:18:55.566Z,6.00
2019-01-13T04:21:24.037Z,5.90
2019-01-13T04:23:52.476Z,5.80
2019-01-13T04:26:21.002Z,5.90
2019-01-13T04:28:49.449Z,5.90
2019-01-13T04:31:17.964Z,6.00
2019-01-13T04:33:46.435Z,6.00
2019-01-13T04:36:14.896Z,6.00
2019-01-13T04:38:43.407Z,6.00
2019-01-13T04:41:11.853Z,6.00
2019-01-13T04:43:40.309Z,6.00
2019-01-13T04:46:08.851Z,5.90
2019-01-13T04:48:37.326Z,6.00
2019-01-13T04:51:05.912Z,5.90
2019-01-13T04:53:34.368Z,5.90
2019-01-13T04:56:02.851Z,5.90
2019-01-13T04:58:31.355Z,5.90
2019-01-13T05:00:59.802Z,5.90
2019-01-13T05:03:28.280Z,5.90
2019-01-13T05:05:56.797Z,5.90
2019-01-13T05:08:25.251Z,5.90
2019-01-13T05:10:53.736Z,6.00
2019-01-13T05:13:22.342Z,5.90
2019-01-13T05:15:50.792Z,6.00
2019-01-13T05:18:19.306Z,6.00
2019-01-13T05:20:46.839Z,6.00
2019-01-13T05:23:15.363Z,6.00
2019-01-13T05:25:43.844Z,6.00
2019-01-13T05:28:12.364Z,6.00
2019-01-13T05:30:40.840Z,6.00
2019-01-13T05:33:09.426Z,6.10
2019-01-13T05:35:37.881Z,6.00
2019-01-13T05:38:06.295Z,6.00
2019-01-13T05:40:34.844Z,6.10
2019-01-13T05:43:03.317Z,6.10
2019-01-13T05:45:31.798Z,6.10
2019-01-13T05:48:00.271Z,6.10
2019-01-13T05:50:28.790Z,6.10
2019-01-13T05:52:57.340Z,6.00
2019-01-13T05:55:26.162Z,6.00
2019-01-13T05:57:54.712Z,6.00
2019-01-13T06:00:24.877Z,6.00
2019-01-13T06:02:53.316Z,6.00
2019-01-13T06:05:21.791Z,6.00
2019-01-13T06:07:50.289Z,6.00
2019-01-13T06:10:20.053Z,6.00
2019-01-13T06:12:48.675Z,6.00
2019-01-13T06:15:19.256Z,5.90
2019-01-13T06:17:47.914Z,6.00
2019-01-13T06:20:18.935Z,6.00
2019-01-13T06:22:47.436Z,6.00
2019-01-13T06:25:16.327Z,6.00
2019-01-13T06:27:44.811Z,6.00
2019-01-13T06:30:18.259Z,6.10
2019-01-13T06:32:46.791Z,6.00
2019-01-13T06:35:15.274Z,6.10
2019-01-13T06:37:43.855Z,6.10
2019-01-13T06:40:14.531Z,6.10
2019-01-13T06:42:43.035Z,6.10
2019-01-13T06:45:20.012Z,6.10
2019-01-13T06:47:48.530Z,6.10
2019-01-13T06:50:16.971Z,6.10
2019-01-13T06:52:45.456Z,6.10
2019-01-13T06:55:13.975Z,6.10
2019-01-13T06:57:42.521Z,6.10
2019-01-13T07:00:17.260Z,6.10
2019-01-13T07:02:45.759Z,6.10
2019-01-13T07:05:14.207Z,6.10
2019-01-13T07:07:42.726Z,6.10
2019-01-13T07:10:12.298Z,6.10
2019-01-13T07:12:40.792Z,6.20
2019-01-13T07:15:17.236Z,6.10
2019-01-13T07:17:45.720Z,6.20
2019-01-13T07:20:18.456Z,6.20
2019-01-13T07:22:47.126Z,6.20
2019-01-13T07:25:15.603Z,6.20
2019-01-13T07:27:44.087Z,6.20
2019-01-13T07:30:18.424Z,6.30
2019-01-13T07:32:47.065Z,6.20
2019-01-13T07:35:15.536Z,6.30
2019-01-13T07:37:44.048Z,6.20
2019-01-13T07:40:14.775Z,6.30
2019-01-13T07:42:43.367Z,6.30
2019-01-13T07:45:14.110Z,6.30
2019-01-13T07:47:42.575Z,6.30
2019-01-13T07:50:13.385Z,6.30
2019-01-13T07:52:44.704Z,6.30
2019-01-13T07:55:17.450Z,6.40
2019-01-13T07:57:45.872Z,6.40
2019-01-13T08:00:23.496Z,6.40
2019-01-13T08:02:51.968Z,6.40
2019-01-13T08:05:20.417Z,6.40
2019-01-13T08:07:48.965Z,6.40
2019-01-13T08:10:17.408Z,6.40
2019-01-13T08:12:45.998Z,6.40
2019-01-13T08:15:16.976Z,6.50
2019-01-13T08:17:45.648Z,6.40
2019-01-13T08:20:25.090Z,6.50
2019-01-13T08:22:53.585Z,6.50
2019-01-13T08:25:22.019Z,6.50
2019-01-13T08:27:50.534Z,6.50
2019-01-13T08:30:20.227Z,6.50
2019-01-13T08:32:48.927Z,6.50
2019-01-13T08:35:17.510Z,6.50
2019-01-13T08:37:46.061Z,6.50
2019-01-13T08:40:21.291Z,6.60
2019-01-13T08:42:49.800Z,6.70
2019-01-13T08:45:18.672Z,6.70
2019-01-13T08:47:47.160Z,6.60
2019-01-13T08:50:20.185Z,6.60
2019-01-13T08:52:48.958Z,6.60
2019-01-13T08:55:17.647Z,6.50
2019-01-13T08:57:46.165Z,6.60
2019-01-13T09:00:20.532Z,6.60
2019-01-13T09:02:49.004Z,6.60
2019-01-13T09:05:17.504Z,6.60
2019-01-13T09:07:45.963Z,6.60
2019-01-13T09:10:17.095Z,6.50
2019-01-13T09:12:45.610Z,6.60
2019-01-13T09:15:16.962Z,6.60
2019-01-13T09:17:45.436Z,6.60
2019-01-13T09:20:34.996Z,6.60
2019-01-13T09:23:03.595Z,6.70
2019-01-13T09:25:31.984Z,6.70
2019-01-13T09:28:00.519Z,6.70
2019-01-13T09:30:29.517Z,6.80
2019-01-13T09:32:58.034Z,6.70
2019-01-13T09:35:26.616Z,6.80
2019-01-13T09:37:55.105Z,6.80
2019-01-13T09:43:21.176Z,6.80
2019-01-13T09:45:49.858Z,6.80
2019-01-13T09:48:18.331Z,6.80
2019-01-13T09:50:46.926Z,6.80
2019-01-13T09:53:15.587Z,6.70
2019-01-13T09:55:44.152Z,6.90
2019-01-13T09:58:12.756Z,6.80
2019-01-13T10:00:41.234Z,6.80
2019-01-13T10:03:09.721Z,6.70
2019-01-13T10:05:38.507Z,6.80
2019-01-13T10:08:06.952Z,6.80
2019-01-13T10:10:35.570Z,6.90
2019-01-13T10:13:04.015Z,6.90
2019-01-13T10:15:32.502Z,7.00
2019-01-13T10:18:01.193Z,6.90
2019-01-13T10:20:29.608Z,7.00
2019-01-13T10:22:58.179Z,6.80
2019-01-13T10:25:26.659Z,6.90
2019-01-13T10:27:55.105Z,7.00
2019-01-13T10:30:26.898Z,7.00
2019-01-13T10:32:55.349Z,7.00
2019-01-13T10:35:24.047Z,6.80
2019-01-13T10:37:52.545Z,6.80
2019-01-13T10:40:23.480Z,6.80
2019-01-13T10:42:52.066Z,6.80
2019-01-13T10:45:20.483Z,6.70
2019-01-13T10:47:49.099Z,6.70
2019-01-13T10:50:20.456Z,6.70
2019-01-13T10:52:48.940Z,6.70
2019-01-13T10:55:17.820Z,6.70
2019-01-13T10:57:46.330Z,6.60
2019-01-13T11:00:38.533Z,6.60
2019-01-13T11:03:07.123Z,6.70
2019-01-13T11:05:35.611Z,6.60
2019-01-13T11:08:11.099Z,6.50
2019-01-13T11:10:34.517Z,6.60
2019-01-13T11:13:02.989Z,6.60
2019-01-13T11:15:31.441Z,6.60
2019-01-13T11:17:59.955Z,6.50
2019-01-13T11:20:33.698Z,6.50
2019-01-13T11:23:02.268Z,6.50
2019-01-13T11:25:30.851Z,6.50
2019-01-13T11:27:59.295Z,6.60
2019-01-13T11:30:27.814Z,6.60
2019-01-13T11:32:56.253Z,6.60
2019-01-13T11:35:24.874Z,6.60
2019-01-13T11:37:53.437Z,6.70
2019-01-13T11:40:24.089Z,6.70
2019-01-13T11:42:52.675Z,6.70
2019-01-13T11:45:21.258Z,6.60
2019-01-13T11:47:49.808Z,6.60
2019-01-13T11:50:19.996Z,6.50
2019-01-13T11:52:48.651Z,6.60
2019-01-13T11:55:17.738Z,6.60
2019-01-13T11:57:46.429Z,6.60
2019-01-13T12:31:32.360Z,6.60
2019-01-13T12:34:01.011Z,6.70
2019-01-13T12:36:29.595Z,6.80
2019-01-13T12:38:58.274Z,6.80
2019-01-13T12:41:26.712Z,6.80
2019-01-13T12:43:55.205Z,6.90
2019-01-13T12:46:23.685Z,7.00
2019-01-13T12:48:52.509Z,7.00
2019-01-13T12:51:20.927Z,7.10
2019-01-13T12:53:49.443Z,7.10
2019-01-13T12:56:18.053Z,7.10
2019-01-13T12:58:46.706Z,7.20
2019-01-13T13:01:15.378Z,7.20
2019-01-13T13:03:43.906Z,7.30
2019-01-13T13:06:12.689Z,7.40
2019-01-13T13:08:41.152Z,7.40
2019-01-13T13:11:10.169Z,7.50
2019-01-13T13:13:38.928Z,7.60
2019-01-13T13:16:07.537Z,7.60
2019-01-13T13:18:36.424Z,7.70
2019-01-13T13:21:05.119Z,7.70
2019-01-13T13:23:33.590Z,7.70
2019-01-13T13:26:02.148Z,7.70
2019-01-13T13:28:30.863Z,7.70
2019-01-13T13:30:59.535Z,7.80
2019-01-13T13:33:28.152Z,7.80
2019-01-13T13:35:57.022Z,7.90
2019-01-13T13:38:25.572Z,7.90
2019-01-13T13:40:54.270Z,7.90
2019-01-13T13:43:26.116Z,8.00
2019-01-13T13:45:54.805Z,8.00
2019-01-13T13:48:23.624Z,7.90
2019-01-13T13:50:54.323Z,8.00
2019-01-13T13:53:24.243Z,8.00
2019-01-13T13:55:53.352Z,7.90
2019-01-13T13:58:22.851Z,7.90
2019-01-13T14:00:53.519Z,8.00
2019-01-13T14:03:22.952Z,7.90
2019-01-13T14:05:53.029Z,8.00
2019-01-13T14:08:22.859Z,8.00
2019-01-13T14:10:52.646Z,8.00
2019-01-13T14:13:21.984Z,8.00
2019-01-13T14:15:50.532Z,8.10
2019-01-13T14:18:19.318Z,8.10
2019-01-13T14:20:49.131Z,8.20
2019-01-13T14:23:17.874Z,8.20
2019-01-13T14:28:16.065Z,8.20
2019-01-13T14:30:46.534Z,8.20
2019-01-13T14:33:16.835Z,8.30
2019-01-13T14:35:46.200Z,8.20
2019-01-13T14:38:17.022Z,8.20
2019-01-13T14:40:46.105Z,8.30
2019-01-13T14:43:15.200Z,8.20
2019-01-13T14:45:44.041Z,8.30
2019-01-13T14:48:12.556Z,8.30
2019-01-13T14:50:41.308Z,8.30
2019-01-13T14:53:10.442Z,8.30
2019-01-13T14:55:39.535Z,8.30
2019-01-13T14:58:08.670Z,8.30
2019-01-13T15:00:37.778Z,8.30
2019-01-13T15:03:06.836Z,8.20
2019-01-13T15:05:36.104Z,8.20
2019-01-13T15:08:04.891Z,8.20
2019-01-13T15:10:33.659Z,8.20
2019-01-13T15:13:02.373Z,8.20
2019-01-13T15:15:31.442Z,8.10
2019-01-13T15:18:00.280Z,8.20
2019-01-13T15:20:29.293Z,8.20
2019-01-13T15:22:58.301Z,8.10
2019-01-13T15:25:28.412Z,8.20
2019-01-13T15:27:57.388Z,8.20
2019-01-13T15:30:29.533Z,8.20
2019-01-13T15:32:58.412Z,8.10
2019-01-13T15:35:28.835Z,8.20
2019-01-13T15:37:58.927Z,8.20
2019-01-13T15:40:28.088Z,8.20
2019-01-13T15:42:56.804Z,8.20
2019-01-13T15:45:26.241Z,8.20
2019-01-13T15:47:55.551Z,8.20
2019-01-13T15:50:26.868Z,8.20
2019-01-13T15:52:55.789Z,8.20
2019-01-13T15:55:24.580Z,8.20
2019-01-13T15:57:55.010Z,8.20
2019-01-13T16:00:32.008Z,8.20
2019-01-13T16:03:01.930Z,8.10
2019-01-13T16:05:32.128Z,8.10
2019-01-13T16:08:01.463Z,8.10
2019-01-13T16:10:31.346Z,8.10
2019-01-13T16:13:01.628Z,8.10
2019-01-13T16:15:34.516Z,8.20
2019-01-13T16:18:03.164Z,8.20
2019-01-13T16:20:37.223Z,8.20
2019-01-13T16:23:07.304Z,8.20
2019-01-13T16:25:36.732Z,8.20
2019-01-13T16:28:05.881Z,8.20
2019-01-13T16:30:35.755Z,8.20
2019-01-13T16:33:05.710Z,8.20
2019-01-13T16:35:34.739Z,8.20
2019-01-13T16:38:04.558Z,8.20
2019-01-13T16:40:35.095Z,8.20
2019-01-13T16:43:04.726Z,8.20
2019-01-13T16:45:34.064Z,8.20
2019-01-13T16:48:02.959Z,8.20
2019-01-13T16:50:32.454Z,8.30
2019-01-13T16:53:01.990Z,8.20
2019-01-13T16:55:31.573Z,8.20
2019-01-13T16:58:00.840Z,8.20
2019-01-13T17:00:30.448Z,8.10
2019-01-13T17:02:59.930Z,8.10
2019-01-13T17:05:29.144Z,8.10
2019-01-13T17:07:58.492Z,8.10
2019-01-13T17:10:27.600Z,8.10
2019-01-13T17:12:56.913Z,8.10
2019-01-13T17:15:28.372Z,8.10
2019-01-13T17:17:57.342Z,8.10
2019-01-13T17:20:26.074Z,8.10
2019-01-13T17:22:55.042Z,8.10
2019-01-13T17:25:26.825Z,8.00
2019-01-13T17:27:56.179Z,8.10
2019-01-13T17:30:26.867Z,8.00
2019-01-13T17:32:57.625Z,8.00
2019-01-13T17:35:27.526Z,8.00
2019-01-13T17:37:57.396Z,8.00
2019-01-13T17:40:26.835Z,8.00
2019-01-13T17:42:55.906Z,7.90
2019-01-13T17:45:26.752Z,7.90
2019-01-13T17:47:55.217Z,7.80
2019-01-13T17:50:25.372Z,7.10
2019-01-13T17:52:55.669Z,7.00
2019-01-13T17:55:26.403Z,6.90
2019-01-13T17:57:56.081Z,6.90
2019-01-13T18:00:40.979Z,6.90
2019-01-13T18:03:14.184Z,6.90
2019-01-13T18:05:44.327Z,6.90
2019-01-13T18:08:14.602Z,6.80
2019-01-13T18:10:44.848Z,6.80
2019-01-13T18:13:15.080Z,6.70
2019-01-13T18:15:48.174Z,6.70
2019-01-13T18:18:18.896Z,6.70
2019-01-13T18:20:51.776Z,6.60
2019-01-13T18:23:22.973Z,6.60
2019-01-13T18:25:54.329Z,6.60
2019-01-13T18:28:24.532Z,6.70
2019-01-13T18:30:57.225Z,6.80
2019-01-13T18:33:28.598Z,6.70
2019-01-13T18:36:00.595Z,6.70
2019-01-13T18:38:32.103Z,6.70
2019-01-13T18:41:02.085Z,6.60
2019-01-13T18:43:32.465Z,6.70
2019-01-13T18:46:02.655Z,6.70
2019-01-13T18:48:38.250Z,6.70
2019-01-13T18:51:08.725Z,6.60
2019-01-13T18:53:40.222Z,6.50
2019-01-13T18:56:10.881Z,6.50
2019-01-13T18:58:42.233Z,6.50
2019-01-13T19:01:12.277Z,6.40
2019-01-13T19:03:46.157Z,6.50
2019-01-13T19:06:16.342Z,6.50
2019-01-13T19:08:46.499Z,6.50
2019-01-13T19:11:19.045Z,6.40
2019-01-13T19:14:01.446Z,6.40
2019-01-13T19:16:34.650Z,6.30
2019-01-13T19:19:09.728Z,6.30
2019-01-13T19:21:40.046Z,6.30
2019-01-13T19:24:10.666Z,6.30
2019-01-13T19:26:40.872Z,6.20
2019-01-13T19:29:12.122Z,6.20
2019-01-13T19:31:42.162Z,6.30
2019-01-13T19:34:12.817Z,6.40
2019-01-13T19:37:03.393Z,6.40
2019-01-13T19:39:33.396Z,6.40
2019-01-13T19:42:03.892Z,6.40
2019-01-13T19:44:34.204Z,6.40
2019-01-13T19:47:05.832Z,6.40
2019-01-13T19:49:36.124Z,6.40
2019-01-13T19:52:06.304Z,6.40
2019-01-13T19:54:36.717Z,6.40
2019-01-13T19:57:08.018Z,6.40
2019-01-13T19:59:38.323Z,6.40
2019-01-13T20:02:08.495Z,6.30
2019-01-13T20:04:38.558Z,6.30
2019-01-13T20:07:09.877Z,6.20
2019-01-13T20:09:39.819Z,6.30
2019-01-13T20:12:09.892Z,6.30
2019-01-13T20:14:40.124Z,6.30
2019-01-13T20:17:11.605Z,6.30
2019-01-13T20:19:41.699Z,6.30
2019-01-13T20:22:13.444Z,6.20
2019-01-13T20:24:43.520Z,6.20
2019-01-13T20:27:14.812Z,6.20
2019-01-13T20:29:45.162Z,6.10
2019-01-13T20:32:15.072Z,6.10
2019-01-13T20:34:45.141Z,6.20
2019-01-13T20:37:15.030Z,6.20
2019-01-13T20:39:47.181Z,6.20
2019-01-13T20:42:16.968Z,6.20
2019-01-13T20:44:46.969Z,6.20
2019-01-13T20:47:17.736Z,6.20
2019-01-13T20:49:47.344Z,6.20
2019-01-13T20:52:17.203Z,6.20
2019-01-13T20:54:47.035Z,6.10
2019-01-13T20:57:16.988Z,6.20
2019-01-13T20:59:47.096Z,6.10
2019-01-13T21:02:16.986Z,6.00
2019-01-13T21:04:46.811Z,5.90
2019-01-13T21:07:17.935Z,6.00
2019-01-13T21:09:47.059Z,6.00
2019-01-13T21:12:16.848Z,5.90
2019-01-13T22:09:15.544Z,6.00
2019-01-13T22:11:44.122Z,6.00
2019-01-13T22:14:12.716Z,6.00
2019-01-13T22:16:41.355Z,5.90
2019-01-13T22:19:09.910Z,6.00
2019-01-13T22:47:35.339Z,5.90
2019-01-13T23:20:11.231Z,5.20
2019-01-13T23:22:40.552Z,5.10
2019-01-13T23:25:09.535Z,5.10
2019-01-13T23:46:59.308Z,4.90
2019-01-13T23:49:29.159Z,4.70
2019-01-13T23:51:58.337Z,4.70
2019-01-13T23:54:27.105Z,4.60
2019-01-13T23:56:56.760Z,4.60
2019-01-13T23:59:25.615Z,4.60
